Time;durP1;ratioP1;P1;durP2;ratioP2;P2;SDS_P1;SDS_P2;PMS_P1;PMS_P2;Temp;Humidity;BMP_temperature;BMP_pressure;BME280_temperature;BME280_humidity;BME280_pressure;Samples;Min_cycle;Max_cycle;Signal;HPM_P1;HPM_P2
2020/12/22 00:00:51;;;;;;;;;;;9.20;99.90;;;;;;5009855;28;19985;-88
2020/12/22 00:03:17;;;;;;;;;;;9.20;99.90;;;;;;5012700;28;19917;-87
2020/12/22 00:05:44;;;;;;;;;;;9.30;99.90;;;;;;5012703;28;19977;-88
2020/12/22 00:08:12;;;;;;;;;;;9.30;99.90;;;;;;5012543;28;19926;-87
2020/12/22 00:10:40;;;;;;;;;;;9.30;99.90;;;;;;5012322;28;19940;-86
2020/12/22 00:13:06;;;;;;;;;;;9.30;99.90;;;;;;5012648;28;19913;-88
2020/12/22 00:15:31;;;;;;;;;;;9.20;99.90;;;;;;5012704;28;19966;-88
2020/12/22 00:17:57;;;;;;;;;;;9.30;99.90;;;;;;5012844;28;20361;-88
2020/12/22 00:20:25;;;;;;;;;;;9.20;99.90;;;;;;5012998;28;20424;-87
2020/12/22 00:22:51;;;;;;;;;;;9.20;99.90;;;;;;5012047;28;19932;-87
2020/12/22 00:25:17;;;;;;;;;;;9.30;99.90;;;;;;5012230;28;19909;-86
2020/12/22 00:27:45;;;;;;;;;;;9.30;99.90;;;;;;5012563;28;20257;-87
2020/12/22 00:30:10;;;;;;;;;;;9.20;99.90;;;;;;5012302;28;20034;-87
2020/12/22 00:32:38;;;;;;;;;;;9.20;99.90;;;;;;5012769;28;19918;-88
2020/12/22 00:35:04;;;;;;;;;;;9.20;99.90;;;;;;5013940;28;19914;-86
2020/12/22 00:37:30;;;;;;;;;;;9.20;99.90;;;;;;5012957;28;20400;-88
2020/12/22 00:39:56;;;;;;;;;;;9.20;99.90;;;;;;5012147;28;19914;-88
2020/12/22 00:42:21;;;;;;;;;;;9.30;99.90;;;;;;5012757;28;19972;-87
2020/12/22 00:44:46;;;;;;;;;;;9.30;99.90;;;;;;5012661;28;20273;-88
2020/12/22 00:47:12;;;;;;;;;;;9.30;99.90;;;;;;5012350;28;19945;-86
2020/12/22 00:49:38;;;;;;;;;;;9.30;99.90;;;;;;5011448;28;20000;-89
2020/12/22 00:52:06;;;;;;;;;;;9.30;99.90;;;;;;5012079;28;19952;-88
2020/12/22 00:54:31;;;;;;;;;;;9.40;99.90;;;;;;5012368;28;19945;-89
2020/12/22 00:56:59;;;;;;;;;;;9.40;99.90;;;;;;5014700;28;19909;-88
2020/12/22 00:59:27;;;;;;;;;;;9.50;99.90;;;;;;5015661;28;19910;-89
2020/12/22 01:01:52;;;;;;;;;;;9.50;99.90;;;;;;5015782;28;20345;-89
2020/12/22 01:04:18;;;;;;;;;;;9.50;99.90;;;;;;5015895;28;19910;-88
2020/12/22 01:06:43;;;;;;;;;;;9.60;99.90;;;;;;5012613;28;20380;-86
2020/12/22 01:09:09;;;;;;;;;;;9.60;99.90;;;;;;5015547;28;19909;-89
2020/12/22 01:11:35;;;;;;;;;;;9.70;99.90;;;;;;5015203;28;19918;-87
2020/12/22 01:14:03;;;;;;;;;;;9.70;99.90;;;;;;5015786;28;19933;-89
2020/12/22 01:16:29;;;;;;;;;;;9.70;99.90;;;;;;5015429;28;19909;-87
2020/12/22 01:18:54;;;;;;;;;;;9.70;99.90;;;;;;5015591;28;19916;-87
2020/12/22 01:21:23;;;;;;;;;;;9.80;99.90;;;;;;5015485;28;19910;-86
2020/12/22 01:23:48;;;;;;;;;;;9.80;99.90;;;;;;5015167;28;19910;-87
2020/12/22 01:26:21;;;;;;;;;;;9.90;99.90;;;;;;5015140;28;19916;-87
2020/12/22 01:28:46;;;;;;;;;;;9.80;99.90;;;;;;5015204;28;19916;-86
2020/12/22 01:31:18;;;;;;;;;;;9.80;99.90;;;;;;5015060;28;20297;-86
2020/12/22 01:33:46;;;;;;;;;;;9.90;99.90;;;;;;5015068;28;19921;-87
2020/12/22 01:36:17;;;;;;;;;;;9.80;99.90;;;;;;5014859;28;19967;-88
2020/12/22 01:38:45;;;;;;;;;;;10.00;99.90;;;;;;5009849;28;19914;-87
2020/12/22 01:41:10;;;;;;;;;;;9.90;99.90;;;;;;5001923;28;20277;-91
2020/12/22 01:43:38;;;;;;;;;;;9.90;99.90;;;;;;5015084;28;19916;-85
2020/12/22 01:46:04;;;;;;;;;;;9.90;99.90;;;;;;5014562;28;19909;-89
2020/12/22 01:48:30;;;;;;;;;;;10.00;99.90;;;;;;5015368;28;19916;-88
2020/12/22 01:50:56;;;;;;;;;;;10.00;99.90;;;;;;5015055;28;20323;-87
2020/12/22 01:53:22;;;;;;;;;;;10.00;99.90;;;;;;5014992;28;19924;-86
2020/12/22 01:55:48;;;;;;;;;;;10.00;99.90;;;;;;5014548;28;19993;-87
2020/12/22 01:58:16;;;;;;;;;;;10.00;99.90;;;;;;5014862;28;20319;-87
2020/12/22 02:00:42;;;;;;;;;;;10.10;99.90;;;;;;5014151;28;19991;-86
2020/12/22 02:03:10;;;;;;;;;;;10.10;99.90;;;;;;5014373;28;20353;-88
2020/12/22 02:05:36;;;;;;;;;;;10.20;99.90;;;;;;5002718;28;20368;-85
2020/12/22 02:08:04;;;;;;;;;;;10.20;99.90;;;;;;5014253;28;19922;-90
2020/12/22 02:10:29;;;;;;;;;;;10.10;99.90;;;;;;5014419;28;20396;-87
2020/12/22 02:12:57;;;;;;;;;;;10.20;99.90;;;;;;5014817;28;19913;-86
2020/12/22 02:15:25;;;;;;;;;;;10.20;99.90;;;;;;5014052;28;19913;-86
2020/12/22 02:17:51;;;;;;;;;;;10.20;99.90;;;;;;5014363;28;20470;-87
2020/12/22 02:20:16;;;;;;;;;;;10.20;99.90;;;;;;5014138;28;19910;-87
2020/12/22 02:22:42;;;;;;;;;;;10.20;99.90;;;;;;5014774;28;19921;-87
2020/12/22 02:25:14;;;;;;;;;;;10.10;99.90;;;;;;5013680;28;20259;-88
2020/12/22 02:27:40;;;;;;;;;;;10.10;99.90;;;;;;5014789;28;19921;-88
2020/12/22 02:30:06;;;;;;;;;;;10.20;99.90;;;;;;5014159;28;19913;-88
2020/12/22 02:32:31;;;;;;;;;;;10.30;99.90;;;;;;5013955;28;19973;-87
2020/12/22 02:34:59;;;;;;;;;;;10.30;99.90;;;;;;5014100;28;19910;-89
2020/12/22 02:37:25;;;;;;;;;;;10.20;99.90;;;;;;5014283;28;19917;-87
2020/12/22 02:39:53;;;;;;;;;;;10.10;99.90;;;;;;5014074;28;20293;-88
2020/12/22 02:42:21;;;;;;;;;;;10.10;99.90;;;;;;5014005;28;19961;-88
2020/12/22 02:44:46;;;;;;;;;;;10.10;99.90;;;;;;5014076;28;20424;-89
2020/12/22 02:47:15;;;;;;;;;;;10.20;99.90;;;;;;5013952;28;19996;-88
2020/12/22 02:49:43;;;;;;;;;;;10.20;99.90;;;;;;5013947;28;19914;-88
2020/12/22 02:52:09;;;;;;;;;;;10.20;99.90;;;;;;5013878;28;19918;-88
2020/12/22 02:54:42;;;;;;;;;;;10.20;99.90;;;;;;5013879;28;19909;-89
2020/12/22 02:57:07;;;;;;;;;;;10.20;99.90;;;;;;5013844;28;19909;-88
2020/12/22 02:59:35;;;;;;;;;;;10.30;99.90;;;;;;5014026;28;19909;-88
2020/12/22 03:02:03;;;;;;;;;;;10.30;99.90;;;;;;5013818;28;19914;-87
2020/12/22 03:04:31;;;;;;;;;;;10.30;99.90;;;;;;5013883;28;19963;-87
2020/12/22 03:06:57;;;;;;;;;;;10.40;99.90;;;;;;5013153;28;19921;-86
2020/12/22 03:09:25;;;;;;;;;;;10.40;99.90;;;;;;5013157;28;19916;-88
2020/12/22 03:11:53;;;;;;;;;;;10.40;99.90;;;;;;5013575;28;19913;-86
2020/12/22 03:14:21;;;;;;;;;;;10.50;99.90;;;;;;5013275;28;19914;-86
2020/12/22 03:16:46;;;;;;;;;;;10.50;99.90;;;;;;5013518;28;20013;-89
2020/12/22 03:19:14;;;;;;;;;;;10.50;99.90;;;;;;5012904;28;19917;-87
2020/12/22 03:21:42;;;;;;;;;;;10.50;99.90;;;;;;5013244;28;19909;-87
2020/12/22 03:24:07;;;;;;;;;;;10.50;99.90;;;;;;5013313;28;19933;-87
2020/12/22 03:26:35;;;;;;;;;;;10.50;99.90;;;;;;5013047;28;19967;-87
2020/12/22 03:29:03;;;;;;;;;;;10.50;99.90;;;;;;5013384;28;19914;-87
2020/12/22 03:31:29;;;;;;;;;;;10.50;99.90;;;;;;5013250;28;20008;-88
2020/12/22 03:33:56;;;;;;;;;;;10.60;99.90;;;;;;5013459;28;20501;-86
2020/12/22 03:36:22;;;;;;;;;;;10.60;99.90;;;;;;5013448;28;20281;-88
2020/12/22 03:38:50;;;;;;;;;;;10.60;99.90;;;;;;5013506;28;19910;-87
2020/12/22 03:41:19;;;;;;;;;;;10.70;99.90;;;;;;5013090;28;20087;-86
2020/12/22 03:43:47;;;;;;;;;;;10.70;99.90;;;;;;5013215;28;20377;-86
2020/12/22 03:46:13;;;;;;;;;;;10.70;99.90;;;;;;5013131;28;20336;-88
2020/12/22 03:48:39;;;;;;;;;;;10.60;99.90;;;;;;5013165;28;19909;-87
2020/12/22 03:51:04;;;;;;;;;;;10.60;99.90;;;;;;5012808;28;19963;-87
2020/12/22 03:53:30;;;;;;;;;;;10.50;99.90;;;;;;5013038;28;19913;-88
2020/12/22 03:55:58;;;;;;;;;;;10.50;99.90;;;;;;5012225;28;19983;-88
2020/12/22 03:58:23;;;;;;;;;;;10.60;99.90;;;;;;5013058;28;19916;-86
2020/12/22 04:00:51;;;;;;;;;;;10.50;99.90;;;;;;5012742;28;20004;-88
2020/12/22 04:03:17;;;;;;;;;;;10.60;99.90;;;;;;5012684;28;20274;-86
2020/12/22 04:05:42;;;;;;;;;;;10.60;99.90;;;;;;5012974;28;19917;-89
2020/12/22 04:08:08;;;;;;;;;;;10.60;99.90;;;;;;5012756;28;19921;-88
2020/12/22 04:10:34;;;;;;;;;;;10.70;99.90;;;;;;5012477;28;19917;-89
2020/12/22 04:12:59;;;;;;;;;;;10.60;99.90;;;;;;5012758;28;20341;-89
2020/12/22 04:15:27;;;;;;;;;;;10.60;99.90;;;;;;5012790;28;20336;-88
2020/12/22 04:17:53;;;;;;;;;;;10.60;99.90;;;;;;5012380;28;20009;-87
2020/12/22 04:20:18;;;;;;;;;;;10.60;99.90;;;;;;5012632;28;19976;-88
2020/12/22 04:22:46;;;;;;;;;;;10.60;99.90;;;;;;5013832;28;19911;-87
2020/12/22 04:25:11;;;;;;;;;;;10.60;99.90;;;;;;5012921;28;19945;-88
2020/12/22 04:27:39;;;;;;;;;;;10.70;99.90;;;;;;5012601;28;19948;-88
2020/12/22 04:30:05;;;;;;;;;;;10.70;99.90;;;;;;5012421;28;19921;-88
2020/12/22 04:32:30;;;;;;;;;;;10.70;99.90;;;;;;5015793;28;19913;-88
2020/12/22 04:34:56;;;;;;;;;;;10.60;99.90;;;;;;5016470;28;19932;-88
2020/12/22 04:37:24;;;;;;;;;;;10.60;99.90;;;;;;5016111;28;19913;-86
2020/12/22 04:39:52;;;;;;;;;;;10.60;99.90;;;;;;5016453;28;20055;-88
2020/12/22 04:42:19;;;;;;;;;;;10.80;99.90;;;;;;5016862;28;19916;-88
2020/12/22 04:44:49;;;;;;;;;;;10.70;99.90;;;;;;5016456;28;19909;-87
2020/12/22 04:47:15;;;;;;;;;;;10.70;99.90;;;;;;5015965;28;19996;-88
2020/12/22 04:49:46;;;;;;;;;;;10.70;99.90;;;;;;5015901;28;19972;-88
2020/12/22 04:52:15;;;;;;;;;;;10.80;99.90;;;;;;5010052;28;20395;-88
2020/12/22 04:54:43;;;;;;;;;;;10.80;99.90;;;;;;5007199;28;19918;-87
2020/12/22 04:57:08;;;;;;;;;;;10.80;99.90;;;;;;5012941;28;19909;-87
2020/12/22 04:59:37;;;;;;;;;;;10.70;99.90;;;;;;5007589;28;19909;-88
2020/12/22 05:02:03;;;;;;;;;;;10.80;99.90;;;;;;5006859;28;19914;-86
2020/12/22 05:04:32;;;;;;;;;;;10.70;99.90;;;;;;5015525;28;20058;-89
2020/12/22 05:06:57;;;;;;;;;;;10.70;99.90;;;;;;5015489;28;19928;-86
2020/12/22 05:09:26;;;;;;;;;;;10.70;99.90;;;;;;5015896;28;20360;-87
2020/12/22 05:11:51;;;;;;;;;;;10.80;99.90;;;;;;5015917;28;20019;-86
2020/12/22 05:14:17;;;;;;;;;;;10.80;99.90;;;;;;5015869;28;19971;-87
2020/12/22 05:16:46;;;;;;;;;;;10.70;99.90;;;;;;5016131;28;19997;-87
2020/12/22 05:19:15;;;;;;;;;;;10.70;99.90;;;;;;5010467;28;19909;-86
2020/12/22 05:21:43;;;;;;;;;;;10.70;99.90;;;;;;4995913;28;19909;-88
2020/12/22 05:24:14;;;;;;;;;;;10.70;99.90;;;;;;4995911;28;19919;-87
2020/12/22 05:26:43;;;;;;;;;;;10.70;99.90;;;;;;4996144;28;19910;-86
2020/12/22 05:29:09;;;;;;;;;;;10.70;99.90;;;;;;4996065;28;19910;-87
2020/12/22 05:31:40;;;;;;;;;;;10.80;99.90;;;;;;4995707;28;19914;-88
2020/12/22 05:34:08;;;;;;;;;;;10.70;99.90;;;;;;5012306;28;20461;-88
2020/12/22 05:36:33;;;;;;;;;;;10.70;99.90;;;;;;4996940;28;20020;-87
2020/12/22 05:39:02;;;;;;;;;;;10.80;99.90;;;;;;4996761;28;20325;-88
2020/12/22 05:41:27;;;;;;;;;;;10.80;99.90;;;;;;4995143;28;19910;-87
2020/12/22 05:43:53;;;;;;;;;;;10.80;99.90;;;;;;4995736;28;19910;-88
2020/12/22 05:46:19;;;;;;;;;;;10.80;99.90;;;;;;5001390;28;19959;-87
2020/12/22 05:48:50;;;;;;;;;;;10.80;99.90;;;;;;4999059;28;19920;-86
2020/12/22 05:51:16;;;;;;;;;;;10.80;99.90;;;;;;4998785;28;19913;-87
2020/12/22 05:53:42;;;;;;;;;;;10.90;99.90;;;;;;4998461;28;20276;-86
2020/12/22 05:56:17;;;;;;;;;;;10.90;99.90;;;;;;4998550;28;19993;-88
2020/12/22 05:58:43;;;;;;;;;;;10.90;99.90;;;;;;4998351;28;19996;-87
2020/12/22 06:01:10;;;;;;;;;;;10.90;99.90;;;;;;4998583;28;19983;-87
2020/12/22 06:03:38;;;;;;;;;;;11.00;99.90;;;;;;4998735;28;19910;-88
2020/12/22 06:06:09;;;;;;;;;;;11.00;99.90;;;;;;5015950;28;19963;-88
2020/12/22 06:08:34;;;;;;;;;;;11.00;99.90;;;;;;5015630;28;19921;-86
2020/12/22 06:11:01;;;;;;;;;;;11.00;99.90;;;;;;4998244;28;19936;-86
2020/12/22 06:13:26;;;;;;;;;;;11.00;99.90;;;;;;4998097;28;19921;-86
2020/12/22 06:15:55;;;;;;;;;;;11.00;99.90;;;;;;4998383;28;19914;-88
2020/12/22 06:18:21;;;;;;;;;;;11.10;99.90;;;;;;4998397;28;19909;-86
2020/12/22 06:20:46;;;;;;;;;;;11.10;99.90;;;;;;4998312;28;19972;-87
2020/12/22 06:23:14;;;;;;;;;;;11.10;99.90;;;;;;4998335;28;19961;-86
2020/12/22 06:25:39;;;;;;;;;;;11.10;99.90;;;;;;4998082;28;19909;-86
2020/12/22 06:28:16;;;;;;;;;;;11.10;99.90;;;;;;4998038;28;19916;-86
2020/12/22 06:30:42;;;;;;;;;;;11.20;99.90;;;;;;4998133;28;19917;-86
2020/12/22 06:33:39;;;;;;;;;;;11.20;99.90;;;;;;4998094;28;19914;-84
2020/12/22 06:36:13;;;;;;;;;;;11.30;99.90;;;;;;4993932;28;19910;-86
2020/12/22 06:38:55;;;;;;;;;;;11.30;99.90;;;;;;4998243;28;19971;-84
2020/12/22 06:41:27;;;;;;;;;;;11.30;99.90;;;;;;5015337;28;20372;-85
2020/12/22 06:44:09;;;;;;;;;;;11.30;99.90;;;;;;4997733;28;19913;-86
2020/12/22 06:46:35;;;;;;;;;;;11.30;99.90;;;;;;4998004;28;19948;-87
2020/12/22 06:49:05;;;;;;;;;;;11.30;99.90;;;;;;4997895;28;19909;-85
2020/12/22 06:51:32;;;;;;;;;;;11.30;99.90;;;;;;4997770;28;20004;-88
2020/12/22 06:54:01;;;;;;;;;;;11.30;99.90;;;;;;4997218;28;19913;-85
2020/12/22 06:56:42;;;;;;;;;;;11.30;99.90;;;;;;4997761;28;20005;-85
2020/12/22 06:59:10;;;;;;;;;;;11.30;99.90;;;;;;4997416;28;20004;-86
2020/12/22 07:01:44;;;;;;;;;;;11.40;99.90;;;;;;5002709;28;20135;-86
2020/12/22 07:04:20;;;;;;;;;;;11.30;99.90;;;;;;5007500;28;20048;-86
2020/12/22 07:07:02;;;;;;;;;;;11.30;99.90;;;;;;5004758;28;20981;-85
2020/12/22 07:09:35;;;;;;;;;;;11.30;99.90;;;;;;4996887;28;19910;-86
2020/12/22 07:12:09;;;;;;;;;;;11.40;99.90;;;;;;4997415;28;19987;-86
2020/12/22 07:14:39;;;;;;;;;;;11.40;99.90;;;;;;4997469;28;19936;-87
2020/12/22 07:17:05;;;;;;;;;;;11.50;99.90;;;;;;4997162;28;19913;-86
2020/12/22 07:19:34;;;;;;;;;;;11.50;99.90;;;;;;4997083;28;20000;-86
2020/12/22 07:22:02;;;;;;;;;;;11.50;99.90;;;;;;5015152;28;19964;-87
2020/12/22 07:24:29;;;;;;;;;;;11.60;99.90;;;;;;4997772;28;20210;-87
2020/12/22 07:26:55;;;;;;;;;;;11.50;99.90;;;;;;4995779;28;19909;-88
2020/12/22 07:29:20;;;;;;;;;;;11.50;99.90;;;;;;5009837;28;20286;-87
2020/12/22 07:31:47;;;;;;;;;;;11.50;99.90;;;;;;5009891;28;19918;-87
2020/12/22 07:34:12;;;;;;;;;;;11.60;99.90;;;;;;5011565;28;19921;-86
2020/12/22 07:36:41;;;;;;;;;;;11.60;99.90;;;;;;5010799;28;19987;-87
2020/12/22 07:39:23;;;;;;;;;;;11.60;99.90;;;;;;5010875;28;19914;-88
2020/12/22 07:41:56;;;;;;;;;;;11.60;99.90;;;;;;5010594;28;19989;-86
2020/12/22 07:44:23;;;;;;;;;;;11.60;99.90;;;;;;5010487;28;19952;-87
2020/12/22 07:46:54;;;;;;;;;;;11.60;99.90;;;;;;5010174;28;19924;-87
2020/12/22 07:49:22;;;;;;;;;;;11.70;99.90;;;;;;5010574;28;19910;-87
2020/12/22 07:51:48;;;;;;;;;;;11.60;99.90;;;;;;5010540;28;19917;-88
2020/12/22 07:54:14;;;;;;;;;;;11.60;99.90;;;;;;5005306;28;20037;-88
2020/12/22 07:56:40;;;;;;;;;;;11.60;99.90;;;;;;5001638;28;19909;-87
2020/12/22 07:59:18;;;;;;;;;;;11.60;99.90;;;;;;4999988;28;20321;-87
2020/12/22 08:01:45;;;;;;;;;;;11.60;99.90;;;;;;5001459;28;19960;-86
2020/12/22 08:04:15;;;;;;;;;;;11.60;99.90;;;;;;5001291;28;19917;-87
2020/12/22 08:06:51;;;;;;;;;;;11.60;99.90;;;;;;5005161;28;20403;-87
2020/12/22 08:09:20;;;;;;;;;;;11.60;99.90;;;;;;5012299;28;19963;-87
2020/12/22 08:11:45;;;;;;;;;;;11.60;99.90;;;;;;5003538;28;20360;-86
2020/12/22 08:14:16;;;;;;;;;;;11.70;99.90;;;;;;4998174;28;19917;-87
2020/12/22 08:16:42;;;;;;;;;;;11.70;99.90;;;;;;5015106;28;19913;-86
2020/12/22 08:19:07;;;;;;;;;;;11.60;99.90;;;;;;5002857;28;20379;-88
2020/12/22 08:21:34;;;;;;;;;;;11.60;99.90;;;;;;5013595;28;19914;-88
2020/12/22 08:24:02;;;;;;;;;;;11.60;99.90;;;;;;5014207;28;20431;-86
2020/12/22 08:26:28;;;;;;;;;;;11.60;99.90;;;;;;5015588;28;19913;-89
2020/12/22 08:28:56;;;;;;;;;;;11.60;99.90;;;;;;5009665;28;19925;-86
2020/12/22 08:31:26;;;;;;;;;;;11.70;99.90;;;;;;5010568;28;19956;-88
2020/12/22 08:33:58;;;;;;;;;;;11.60;99.90;;;;;;5029686;28;19917;-86
2020/12/22 08:36:25;;;;;;;;;;;11.60;99.90;;;;;;5013906;28;20302;-87
2020/12/22 08:39:10;;;;;;;;;;;11.70;99.90;;;;;;5013402;28;20277;-86
2020/12/22 08:41:35;;;;;;;;;;;11.70;99.90;;;;;;5012868;28;19988;-86
2020/12/22 08:44:04;;;;;;;;;;;11.80;99.90;;;;;;5008853;28;20017;-86
2020/12/22 08:46:29;;;;;;;;;;;11.80;99.90;;;;;;5005235;28;20008;-89
2020/12/22 08:48:55;;;;;;;;;;;11.80;99.90;;;;;;5007191;28;20350;-87
2020/12/22 08:51:24;;;;;;;;;;;11.80;99.90;;;;;;5008995;28;20011;-86
2020/12/22 08:53:52;;;;;;;;;;;11.80;99.90;;;;;;5004721;28;20016;-89
2020/12/22 08:56:21;;;;;;;;;;;11.90;99.90;;;;;;5003900;28;20291;-88
2020/12/22 08:58:53;;;;;;;;;;;11.90;99.90;;;;;;5004435;28;19924;-87
2020/12/22 09:01:22;;;;;;;;;;;11.90;99.90;;;;;;5013715;28;20382;-87
2020/12/22 09:03:52;;;;;;;;;;;12.00;99.90;;;;;;5004751;28;19920;-87
2020/12/22 09:06:20;;;;;;;;;;;12.00;99.90;;;;;;5004396;28;19913;-86
2020/12/22 09:08:57;;;;;;;;;;;12.00;99.90;;;;;;5000025;28;20381;-86
2020/12/22 09:11:23;;;;;;;;;;;12.10;99.90;;;;;;4996548;28;20321;-86
2020/12/22 09:14:00;;;;;;;;;;;12.10;99.90;;;;;;4996658;28;19922;-87
2020/12/22 09:16:41;;;;;;;;;;;12.10;99.90;;;;;;5001037;28;20008;-86
2020/12/22 09:19:07;;;;;;;;;;;12.10;99.90;;;;;;5008750;28;19917;-86
2020/12/22 09:21:33;;;;;;;;;;;12.10;99.90;;;;;;5009532;28;19914;-86
2020/12/22 09:23:59;;;;;;;;;;;12.10;99.90;;;;;;5009304;28;19967;-86
2020/12/22 09:26:24;;;;;;;;;;;12.20;99.90;;;;;;5006528;28;19964;-85
2020/12/22 09:28:52;;;;;;;;;;;12.20;99.90;;;;;;5012228;28;20281;-86
2020/12/22 09:31:22;;;;;;;;;;;12.20;99.90;;;;;;5012379;28;20443;-87
2020/12/22 09:33:52;;;;;;;;;;;12.20;99.90;;;;;;5013306;28;19942;-86
2020/12/22 09:36:21;;;;;;;;;;;12.20;99.90;;;;;;5028576;28;20286;-88
2020/12/22 09:38:46;;;;;;;;;;;12.20;99.90;;;;;;5010719;28;19973;-88
2020/12/22 09:41:12;;;;;;;;;;;12.20;99.90;;;;;;5012917;28;19928;-87
2020/12/22 09:43:37;;;;;;;;;;;12.20;99.90;;;;;;5011320;28;19941;-87
2020/12/22 09:46:06;;;;;;;;;;;12.20;99.90;;;;;;5012374;28;20023;-88
2020/12/22 09:48:31;;;;;;;;;;;12.20;99.90;;;;;;5011568;28;19920;-87
2020/12/22 09:50:58;;;;;;;;;;;12.20;99.90;;;;;;5012060;28;19917;-85
2020/12/22 09:53:23;;;;;;;;;;;12.20;99.90;;;;;;5011386;28;19940;-87
2020/12/22 09:55:51;;;;;;;;;;;12.20;99.90;;;;;;5012947;28;20378;-85
2020/12/22 09:58:19;;;;;;;;;;;12.20;99.90;;;;;;5011694;28;19913;-89
2020/12/22 10:00:44;;;;;;;;;;;12.20;99.90;;;;;;5010803;28;19944;-86
2020/12/22 10:03:11;;;;;;;;;;;12.20;99.90;;;;;;5011668;28;19913;-86
2020/12/22 10:05:37;;;;;;;;;;;12.30;99.90;;;;;;5011602;28;19928;-88
2020/12/22 10:08:03;;;;;;;;;;;12.30;99.90;;;;;;5011526;28;19930;-86
2020/12/22 10:10:28;;;;;;;;;;;12.30;99.90;;;;;;5010934;28;19917;-87
2020/12/22 10:12:54;;;;;;;;;;;12.30;99.90;;;;;;5011642;28;19913;-87
2020/12/22 10:15:22;;;;;;;;;;;12.30;99.90;;;;;;5004531;28;19914;-86
2020/12/22 10:17:50;;;;;;;;;;;12.30;99.90;;;;;;5010894;28;19919;-88
2020/12/22 10:20:15;;;;;;;;;;;12.50;99.90;;;;;;5011108;28;19936;-87
2020/12/22 10:22:46;;;;;;;;;;;12.50;99.90;;;;;;5010908;28;19913;-88
2020/12/22 10:25:11;;;;;;;;;;;12.50;99.90;;;;;;5011542;28;19952;-86
2020/12/22 10:27:37;;;;;;;;;;;12.50;99.90;;;;;;5010715;28;19945;-87
2020/12/22 10:30:03;;;;;;;;;;;12.60;99.90;;;;;;5011304;28;19922;-87
2020/12/22 10:32:28;;;;;;;;;;;12.60;99.90;;;;;;5010945;28;19944;-85
2020/12/22 10:34:56;;;;;;;;;;;12.60;99.90;;;;;;5011429;28;19957;-88
2020/12/22 10:37:22;;;;;;;;;;;12.70;99.90;;;;;;5010923;28;19932;-88
2020/12/22 10:39:51;;;;;;;;;;;12.70;99.90;;;;;;5011794;28;19913;-88
2020/12/22 10:42:19;;;;;;;;;;;12.70;99.90;;;;;;5010856;28;19917;-86
2020/12/22 10:44:45;;;;;;;;;;;12.70;99.90;;;;;;5011051;28;19910;-87
2020/12/22 10:47:11;;;;;;;;;;;12.80;99.90;;;;;;5011001;28;19913;-86
2020/12/22 10:49:36;;;;;;;;;;;12.80;99.90;;;;;;5010548;28;19963;-88
2020/12/22 10:52:02;;;;;;;;;;;12.80;99.90;;;;;;5010661;28;20300;-86
2020/12/22 10:54:28;;;;;;;;;;;12.80;99.90;;;;;;5010463;28;20352;-89
2020/12/22 10:56:56;;;;;;;;;;;12.90;99.90;;;;;;5010713;28;19913;-87
2020/12/22 10:59:22;;;;;;;;;;;12.80;99.90;;;;;;5010300;28;19914;-88
2020/12/22 11:01:49;;;;;;;;;;;12.80;99.90;;;;;;5010277;28;19921;-88
2020/12/22 11:04:17;;;;;;;;;;;12.80;99.90;;;;;;5011730;28;20036;-86
2020/12/22 11:06:58;;;;;;;;;;;12.80;99.90;;;;;;5010508;28;19925;-86
2020/12/22 11:09:23;;;;;;;;;;;12.90;99.90;;;;;;5010436;28;19913;-86
2020/12/22 11:11:49;;;;;;;;;;;12.80;99.90;;;;;;5010346;28;19925;-86
2020/12/22 11:14:14;;;;;;;;;;;12.80;99.90;;;;;;5010714;28;20285;-88
2020/12/22 11:16:40;;;;;;;;;;;12.80;99.90;;;;;;5010377;28;19914;-87
2020/12/22 11:19:05;;;;;;;;;;;12.80;99.90;;;;;;5010327;28;19964;-85
2020/12/22 11:21:31;;;;;;;;;;;12.80;99.90;;;;;;5011425;28;19991;-87
2020/12/22 11:23:57;;;;;;;;;;;12.90;99.90;;;;;;5011071;28;20337;-85
2020/12/22 11:26:25;;;;;;;;;;;12.90;99.90;;;;;;5013243;28;19924;-86
2020/12/22 11:28:51;;;;;;;;;;;12.90;99.90;;;;;;5014728;28;19909;-90
2020/12/22 11:31:17;;;;;;;;;;;13.00;99.90;;;;;;5013771;28;19923;-89
2020/12/22 11:33:43;;;;;;;;;;;13.00;99.90;;;;;;5020663;28;19921;-90
2020/12/22 11:36:13;;;;;;;;;;;13.00;99.90;;;;;;5021237;28;19920;-90
2020/12/22 11:38:42;;;;;;;;;;;12.90;99.90;;;;;;5008157;28;19918;-87
2020/12/22 11:41:08;;;;;;;;;;;13.00;99.90;;;;;;5001026;28;19960;-87
2020/12/22 11:43:34;;;;;;;;;;;13.00;99.90;;;;;;4994678;28;19945;-87
2020/12/22 11:45:59;;;;;;;;;;;12.90;99.90;;;;;;4994866;28;19957;-89
2020/12/22 11:48:25;;;;;;;;;;;13.00;99.90;;;;;;4994694;28;19948;-88
2020/12/22 11:50:54;;;;;;;;;;;13.00;99.90;;;;;;4994389;28;19966;-88
2020/12/22 11:53:23;;;;;;;;;;;13.00;99.90;;;;;;4994025;28;19989;-89
2020/12/22 11:55:49;;;;;;;;;;;13.00;99.90;;;;;;4994328;28;19918;-89
2020/12/22 11:58:14;;;;;;;;;;;13.00;99.90;;;;;;4994141;28;20020;-88
2020/12/22 12:00:40;;;;;;;;;;;13.00;99.90;;;;;;4993860;28;20015;-88
2020/12/22 12:03:05;;;;;;;;;;;13.00;99.90;;;;;;4993907;28;19997;-89
2020/12/22 12:05:31;;;;;;;;;;;13.10;99.90;;;;;;4993510;28;19914;-88
2020/12/22 12:07:56;;;;;;;;;;;13.10;99.90;;;;;;5001252;28;19995;-88
2020/12/22 12:10:24;;;;;;;;;;;13.10;99.90;;;;;;5001577;28;19921;-89
2020/12/22 12:12:50;;;;;;;;;;;13.10;99.90;;;;;;4996289;28;19924;-89
2020/12/22 12:15:16;;;;;;;;;;;13.10;99.90;;;;;;4994045;28;19921;-89
2020/12/22 12:17:41;;;;;;;;;;;13.10;99.90;;;;;;4994053;28;20004;-89
2020/12/22 12:20:07;;;;;;;;;;;13.10;99.90;;;;;;4993557;28;19917;-90
2020/12/22 12:22:33;;;;;;;;;;;13.10;99.90;;;;;;4998605;28;19953;-89
2020/12/22 12:25:07;;;;;;;;;;;13.10;99.90;;;;;;5009789;28;20007;-89
2020/12/22 12:27:35;;;;;;;;;;;13.10;99.90;;;;;;5010457;28;19920;-89
2020/12/22 12:30:04;;;;;;;;;;;13.10;99.90;;;;;;5009664;28;19952;-89
2020/12/22 12:32:29;;;;;;;;;;;13.10;99.90;;;;;;5009952;28;20016;-90
2020/12/22 12:34:58;;;;;;;;;;;13.10;99.90;;;;;;5009597;28;20004;-88
2020/12/22 12:37:24;;;;;;;;;;;13.10;99.90;;;;;;5010350;28;19956;-89
2020/12/22 12:39:50;;;;;;;;;;;13.10;99.90;;;;;;5009711;28;20411;-89
2020/12/22 12:42:17;;;;;;;;;;;13.10;99.90;;;;;;5009604;28;19975;-88
2020/12/22 12:44:43;;;;;;;;;;;13.10;99.90;;;;;;5009743;28;19910;-88
2020/12/22 12:47:09;;;;;;;;;;;13.20;99.90;;;;;;5009534;28;20291;-89
2020/12/22 12:49:34;;;;;;;;;;;13.20;99.90;;;;;;5004162;28;19917;-90
2020/12/22 12:52:00;;;;;;;;;;;13.30;99.90;;;;;;5009900;28;19929;-88
2020/12/22 12:54:25;;;;;;;;;;;13.30;99.90;;;;;;5013621;28;19968;-87
2020/12/22 12:56:51;;;;;;;;;;;13.30;99.90;;;;;;5013567;28;19920;-87
2020/12/22 12:59:16;;;;;;;;;;;13.30;99.90;;;;;;5013204;28;19921;-87
2020/12/22 13:01:42;;;;;;;;;;;13.40;99.90;;;;;;5012587;28;19940;-89
2020/12/22 13:04:08;;;;;;;;;;;13.40;99.90;;;;;;5013570;28;19984;-86
2020/12/22 13:06:37;;;;;;;;;;;13.30;99.90;;;;;;5013695;28;19918;-89
2020/12/22 13:09:03;;;;;;;;;;;13.30;99.90;;;;;;5013273;28;19929;-88
2020/12/22 13:11:34;;;;;;;;;;;13.30;99.90;;;;;;5012848;28;20358;-87
2020/12/22 13:14:00;;;;;;;;;;;13.20;99.90;;;;;;5013568;28;19924;-87
2020/12/22 13:16:25;;;;;;;;;;;13.20;99.90;;;;;;5012704;28;19914;-87
2020/12/22 13:18:51;;;;;;;;;;;13.20;99.90;;;;;;5013421;28;19917;-89
2020/12/22 13:21:16;;;;;;;;;;;13.20;99.90;;;;;;5016216;28;19913;-89
2020/12/22 13:23:42;;;;;;;;;;;13.20;99.90;;;;;;5013015;28;19918;-87
2020/12/22 13:26:10;;;;;;;;;;;13.20;99.90;;;;;;5012814;28;19920;-86
2020/12/22 13:28:36;;;;;;;;;;;13.20;99.90;;;;;;5013319;28;20345;-87
2020/12/22 13:31:05;;;;;;;;;;;13.20;99.90;;;;;;5012685;28;20016;-87
2020/12/22 13:33:33;;;;;;;;;;;13.20;99.90;;;;;;5013783;28;20284;-88
2020/12/22 13:35:58;;;;;;;;;;;13.20;99.90;;;;;;5012576;28;19913;-86
2020/12/22 13:38:24;;;;;;;;;;;13.10;99.90;;;;;;5012701;28;20295;-87
2020/12/22 13:40:51;;;;;;;;;;;13.10;99.90;;;;;;5012748;28;19914;-88
2020/12/22 13:43:17;;;;;;;;;;;13.10;99.90;;;;;;5013812;28;19921;-87
2020/12/22 13:45:46;;;;;;;;;;;13.10;99.90;;;;;;4996600;28;19922;-88
2020/12/22 13:48:14;;;;;;;;;;;13.10;99.90;;;;;;4995978;28;20353;-87
2020/12/22 13:50:39;;;;;;;;;;;13.10;99.90;;;;;;5011876;28;20388;-87
2020/12/22 13:53:07;;;;;;;;;;;13.10;99.90;;;;;;5003698;28;19917;-87
2020/12/22 13:55:35;;;;;;;;;;;13.10;99.90;;;;;;5004156;28;20000;-87
2020/12/22 13:58:01;;;;;;;;;;;13.10;99.90;;;;;;5004242;28;19917;-88
2020/12/22 14:00:29;;;;;;;;;;;13.10;99.90;;;;;;5003414;28;20004;-89
2020/12/22 14:02:54;;;;;;;;;;;13.10;99.90;;;;;;5003190;28;19913;-86
2020/12/22 14:05:20;;;;;;;;;;;13.10;99.90;;;;;;5004470;28;19925;-87
2020/12/22 14:07:45;;;;;;;;;;;13.10;99.90;;;;;;5003368;28;20388;-87
2020/12/22 14:10:11;;;;;;;;;;;13.10;99.90;;;;;;5004667;28;19917;-86
2020/12/22 14:12:39;;;;;;;;;;;13.00;99.90;;;;;;5012050;28;20037;-86
2020/12/22 14:15:09;;;;;;;;;;;13.00;99.90;;;;;;5011652;28;19913;-88
2020/12/22 14:17:34;;;;;;;;;;;13.00;99.90;;;;;;5012663;28;19932;-88
2020/12/22 14:20:02;;;;;;;;;;;13.00;99.90;;;;;;5012158;28;19913;-88